createdAt,value
2023-03-24T00:01:49.419Z,11.30
2023-03-24T00:04:40.933Z,11.40
2023-03-24T00:07:30.477Z,11.40
2023-03-24T00:10:20.526Z,11.50
2023-03-24T00:13:08.648Z,11.50
2023-03-24T00:15:56.836Z,11.50
2023-03-24T00:18:54.216Z,11.50
2023-03-24T00:21:43.126Z,11.50
2023-03-24T00:24:31.197Z,11.60
2023-03-24T00:27:19.260Z,11.60
2023-03-24T00:30:08.727Z,11.60
2023-03-24T00:32:59.137Z,11.70
2023-03-24T00:35:48.694Z,11.70
2023-03-24T00:38:36.826Z,11.70
2023-03-24T00:41:27.134Z,11.80
2023-03-24T00:44:18.244Z,11.80
2023-03-24T00:47:06.338Z,11.90
2023-03-24T00:49:57.878Z,11.90
2023-03-24T00:52:48.307Z,11.90
2023-03-24T00:55:38.034Z,11.90
2023-03-24T00:58:26.781Z,11.90
2023-03-24T01:01:14.860Z,12.00
2023-03-24T01:04:03.238Z,12.00
2023-03-24T01:06:52.385Z,12.00
2023-03-24T01:09:41.819Z,12.00
2023-03-24T01:12:31.858Z,12.00
2023-03-24T01:15:21.315Z,12.10
2023-03-24T01:18:09.931Z,12.10
2023-03-24T01:20:58.355Z,12.10
2023-03-24T01:23:46.446Z,12.00
2023-03-24T01:26:36.238Z,12.00
2023-03-24T01:29:24.309Z,12.00
2023-03-24T01:32:12.475Z,12.00
2023-03-24T01:35:00.566Z,12.00
2023-03-24T01:37:48.675Z,12.00
2023-03-24T01:40:38.245Z,11.90
2023-03-24T01:43:31.154Z,11.90
2023-03-24T01:46:19.994Z,11.80
2023-03-24T01:49:08.981Z,11.80
2023-03-24T01:51:59.967Z,11.80
2023-03-24T01:54:49.074Z,11.70
2023-03-24T01:57:38.980Z,11.70
2023-03-24T02:00:28.670Z,11.70
2023-03-24T02:03:18.505Z,11.70
2023-03-24T02:06:08.610Z,11.60
2023-03-24T02:08:58.039Z,11.60
2023-03-24T02:11:46.697Z,11.60
2023-03-24T02:14:34.817Z,11.60
2023-03-24T02:17:33.377Z,11.60
2023-03-24T02:20:29.922Z,11.60
2023-03-24T02:23:36.417Z,11.50
2023-03-24T02:26:46.220Z,11.50
2023-03-24T02:29:52.719Z,11.50
2023-03-24T02:33:01.541Z,11.50
2023-03-24T02:36:10.606Z,11.50
2023-03-24T02:39:17.332Z,11.50
2023-03-24T02:42:10.389Z,11.50
2023-03-24T02:45:05.041Z,11.40
2023-03-24T02:47:59.318Z,11.50
2023-03-24T02:50:51.176Z,11.40
2023-03-24T02:53:41.706Z,11.40
2023-03-24T02:56:32.699Z,11.50
2023-03-24T02:59:23.204Z,11.40
2023-03-24T03:02:14.139Z,11.50
2023-03-24T03:05:05.231Z,11.50
2023-03-24T03:07:54.944Z,11.60
2023-03-24T03:10:44.949Z,11.60
2023-03-24T03:13:35.370Z,11.60
2023-03-24T03:16:26.698Z,11.70
2023-03-24T03:19:18.788Z,11.80
2023-03-24T03:22:09.068Z,11.80
2023-03-24T03:24:58.413Z,11.80
2023-03-24T03:27:47.010Z,11.80
2023-03-24T03:30:37.701Z,11.90
2023-03-24T03:33:29.948Z,11.90
2023-03-24T03:36:19.827Z,11.90
2023-03-24T03:39:11.787Z,11.80
2023-03-24T03:41:59.901Z,11.80
2023-03-24T03:44:48.042Z,11.80
2023-03-24T03:47:36.342Z,11.80
2023-03-24T03:50:25.908Z,11.90
2023-03-24T03:53:14.478Z,11.90
2023-03-24T03:56:04.315Z,12.00
2023-03-24T03:58:53.525Z,12.00
2023-03-24T04:01:42.021Z,12.00
2023-03-24T04:04:48.650Z,12.00
2023-03-24T04:07:51.720Z,12.00
2023-03-24T04:10:49.564Z,12.00
2023-03-24T04:13:41.572Z,12.00
2023-03-24T04:16:36.681Z,12.00
2023-03-24T04:19:34.401Z,12.10
2023-03-24T04:22:26.314Z,12.10
2023-03-24T04:25:19.808Z,12.20
2023-03-24T04:28:13.051Z,12.20
2023-03-24T04:31:07.408Z,12.20
2023-03-24T04:33:58.274Z,12.20
2023-03-24T04:36:50.425Z,12.30
2023-03-24T04:39:40.669Z,12.30
2023-03-24T04:42:33.695Z,12.40
2023-03-24T04:45:25.835Z,12.40
2023-03-24T04:48:14.795Z,12.40
2023-03-24T04:51:03.362Z,12.40
2023-03-24T04:53:51.503Z,12.40
2023-03-24T04:56:42.034Z,12.50
2023-03-24T04:59:34.222Z,12.50
2023-03-24T05:02:22.365Z,12.50
2023-03-24T05:05:10.863Z,12.50
2023-03-24T05:08:00.231Z,12.50
2023-03-24T05:10:48.714Z,12.60
2023-03-24T05:13:36.796Z,12.60
2023-03-24T05:16:26.308Z,12.60
2023-03-24T05:19:14.421Z,12.60
2023-03-24T05:22:02.862Z,12.60
2023-03-24T05:24:51.025Z,12.60
2023-03-24T05:27:39.118Z,12.60
2023-03-24T05:30:27.223Z,12.60
2023-03-24T05:33:17.375Z,12.60
2023-03-24T05:36:05.774Z,12.70
2023-03-24T05:38:53.849Z,12.70
2023-03-24T05:41:41.890Z,12.70
2023-03-24T05:44:29.986Z,12.60
2023-03-24T05:47:20.108Z,12.60
2023-03-24T05:50:09.939Z,12.70
2023-03-24T05:52:58.232Z,12.60
2023-03-24T05:55:46.848Z,12.60
2023-03-24T05:58:35.386Z,12.60
2023-03-24T06:01:23.478Z,12.60
2023-03-24T06:04:11.595Z,12.70
2023-03-24T06:07:02.834Z,12.70
2023-03-24T06:09:51.100Z,12.60
2023-03-24T06:12:39.657Z,12.60
2023-03-24T06:15:28.647Z,12.60
2023-03-24T06:18:16.923Z,12.60
2023-03-24T06:21:05.015Z,12.60
2023-03-24T06:23:56.377Z,12.60
2023-03-24T06:26:45.224Z,12.70
2023-03-24T06:29:33.303Z,12.70
2023-03-24T06:32:21.634Z,12.80
2023-03-24T06:35:09.891Z,12.80
2023-03-24T06:37:57.961Z,12.90
2023-03-24T06:40:47.402Z,12.90
2023-03-24T06:43:35.627Z,12.90
2023-03-24T06:46:23.727Z,12.90
2023-03-24T06:49:11.852Z,12.90
2023-03-24T06:51:59.897Z,12.90
2023-03-24T06:54:47.960Z,12.90
2023-03-24T06:57:37.647Z,12.90
2023-03-24T07:00:25.824Z,13.00
2023-03-24T07:03:15.475Z,13.00
2023-03-24T07:06:05.061Z,13.10
2023-03-24T07:08:53.317Z,13.10
2023-03-24T07:11:41.558Z,13.10
2023-03-24T07:14:31.042Z,13.20
2023-03-24T07:17:19.076Z,13.20
2023-03-24T07:20:08.478Z,13.30
2023-03-24T07:22:56.794Z,13.30
2023-03-24T07:25:45.442Z,13.30
2023-03-24T07:28:33.608Z,13.40
2023-03-24T07:31:24.695Z,13.40
2023-03-24T07:34:12.860Z,13.40
2023-03-24T07:37:01.867Z,13.50
2023-03-24T07:39:50.305Z,13.50
2023-03-24T07:42:38.634Z,13.60
2023-03-24T07:45:27.284Z,13.70
2023-03-24T07:48:16.932Z,13.80
2023-03-24T07:51:05.110Z,13.80
2023-03-24T07:53:53.302Z,13.80
2023-03-24T07:56:42.061Z,13.90
2023-03-24T07:59:30.299Z,13.90
2023-03-24T08:02:19.011Z,14.00
2023-03-24T08:05:09.207Z,14.10
2023-03-24T08:07:58.594Z,14.20
2023-03-24T08:10:47.228Z,14.30
2023-03-24T08:13:35.617Z,14.30
2023-03-24T08:16:24.778Z,14.40
2023-03-24T08:19:13.010Z,14.50
2023-03-24T08:22:02.544Z,14.50
2023-03-24T08:24:50.619Z,14.50
2023-03-24T08:27:39.095Z,14.50
2023-03-24T08:30:28.349Z,14.50
2023-03-24T08:33:16.980Z,14.40
2023-03-24T08:36:05.538Z,14.40
2023-03-24T08:38:55.591Z,14.50
2023-03-24T08:41:43.677Z,14.30
2023-03-24T08:44:33.000Z,14.20
2023-03-24T08:47:21.423Z,14.10
2023-03-24T08:50:10.381Z,14.00
2023-03-24T08:52:58.798Z,14.10
2023-03-24T08:55:48.493Z,14.20
2023-03-24T08:58:37.110Z,14.30
2023-03-24T09:01:25.576Z,14.20
2023-03-24T09:04:13.933Z,14.00
2023-03-24T09:07:03.113Z,13.80
2023-03-24T09:09:51.401Z,13.80
2023-03-24T09:12:41.084Z,14.00
2023-03-24T09:15:29.182Z,14.20
2023-03-24T09:18:17.335Z,14.40
2023-03-24T09:21:05.688Z,14.50
2023-03-24T09:23:53.763Z,14.60
2023-03-24T09:26:41.935Z,14.70
2023-03-24T09:29:31.444Z,14.80
2023-03-24T09:32:19.544Z,14.90
2023-03-24T09:35:08.661Z,15.10
2023-03-24T09:37:57.167Z,15.20
2023-03-24T09:40:45.901Z,15.30
2023-03-24T09:43:38.404Z,15.40
2023-03-24T09:46:30.941Z,15.50
2023-03-24T09:49:23.526Z,15.50
2023-03-24T09:52:13.208Z,15.60
2023-03-24T09:55:02.476Z,15.70
2023-03-24T09:57:52.200Z,15.70
2023-03-24T10:00:48.532Z,15.70
2023-03-24T10:03:38.171Z,15.80
2023-03-24T10:06:27.336Z,16.00
2023-03-24T10:09:22.052Z,16.00
2023-03-24T10:12:16.777Z,16.10
2023-03-24T10:15:08.209Z,16.10
2023-03-24T10:18:00.083Z,16.10
2023-03-24T10:20:52.312Z,16.10
2023-03-24T10:23:41.793Z,16.00
2023-03-24T10:26:37.608Z,16.20
2023-03-24T10:29:27.760Z,16.30
2023-03-24T10:32:19.481Z,16.40
2023-03-24T10:35:10.080Z,16.10
2023-03-24T10:38:00.955Z,16.10
2023-03-24T10:40:49.776Z,15.90
2023-03-24T10:43:38.075Z,15.90
2023-03-24T10:46:27.560Z,15.90
2023-03-24T10:49:16.747Z,15.90
2023-03-24T10:52:10.403Z,15.90
2023-03-24T10:55:00.455Z,15.80
2023-03-24T10:57:50.438Z,15.90
2023-03-24T11:00:40.458Z,16.00
2023-03-24T11:03:31.530Z,16.00
2023-03-24T11:06:21.087Z,15.90
2023-03-24T11:09:10.460Z,15.90
2023-03-24T11:12:03.577Z,15.90
2023-03-24T11:14:53.319Z,15.80
2023-03-24T11:17:42.505Z,15.80
2023-03-24T11:20:32.028Z,15.70
2023-03-24T11:23:21.259Z,15.70
2023-03-24T11:26:10.674Z,15.60
2023-03-24T11:29:02.581Z,15.60
2023-03-24T11:31:55.275Z,15.50
2023-03-24T11:34:46.831Z,15.60
2023-03-24T11:37:35.785Z,15.60
2023-03-24T11:40:25.021Z,15.50
2023-03-24T11:43:20.856Z,15.40
2023-03-24T11:46:14.084Z,15.30
2023-03-24T11:49:02.463Z,15.30
2023-03-24T11:51:52.962Z,15.30
2023-03-24T11:54:41.464Z,15.40
2023-03-24T11:57:40.408Z,15.40
2023-03-24T12:00:31.281Z,15.50
2023-03-24T12:03:48.041Z,15.40
2023-03-24T12:06:42.053Z,15.40
2023-03-24T12:09:32.860Z,15.40
2023-03-24T12:12:27.245Z,15.40
2023-03-24T12:15:28.066Z,15.50
2023-03-24T12:18:34.786Z,15.60
2023-03-24T12:21:29.002Z,15.70
2023-03-24T12:24:25.881Z,15.90
2023-03-24T12:27:18.943Z,15.90
2023-03-24T12:30:08.812Z,15.80
2023-03-24T12:33:05.308Z,15.70
2023-03-24T12:36:02.532Z,15.50
2023-03-24T12:38:57.865Z,15.50
2023-03-24T12:42:00.135Z,15.50
2023-03-24T12:45:03.183Z,15.30
2023-03-24T12:48:03.312Z,15.20
2023-03-24T12:50:58.994Z,15.10
2023-03-24T12:53:53.793Z,15.10
2023-03-24T12:56:44.320Z,15.10
2023-03-24T12:59:36.874Z,15.10
2023-03-24T13:02:28.138Z,15.00
2023-03-24T13:05:17.670Z,14.90
2023-03-24T13:08:08.247Z,14.80
2023-03-24T13:11:02.524Z,14.70
2023-03-24T13:13:50.815Z,14.70
2023-03-24T13:16:41.064Z,14.80
2023-03-24T13:19:30.204Z,15.00
2023-03-24T13:22:19.401Z,15.20
2023-03-24T13:25:18.859Z,15.40
2023-03-24T13:28:16.599Z,15.60
2023-03-24T13:31:09.179Z,15.70
2023-03-24T13:34:00.816Z,16.10
2023-03-24T13:36:50.369Z,16.50
2023-03-24T13:39:38.894Z,16.80
2023-03-24T13:42:31.859Z,17.80
2023-03-24T13:45:24.340Z,18.40
2023-03-24T13:48:22.940Z,18.20
2023-03-24T13:51:17.283Z,18.40
2023-03-24T13:54:07.043Z,19.30
2023-03-24T13:56:56.678Z,20.10
2023-03-24T13:59:59.731Z,20.70
2023-03-24T14:02:49.965Z,21.40
2023-03-24T14:05:42.711Z,21.80
2023-03-24T14:08:55.137Z,22.70
2023-03-24T14:11:45.594Z,22.40
2023-03-24T14:14:35.857Z,22.00
2023-03-24T14:17:24.047Z,22.20
2023-03-24T14:20:13.422Z,22.90
2023-03-24T14:23:01.672Z,22.70
2023-03-24T14:25:55.386Z,23.40
2023-03-24T14:28:44.455Z,24.20
2023-03-24T14:31:34.351Z,24.60
2023-03-24T14:34:27.708Z,25.20
2023-03-24T14:41:13.872Z,25.70
2023-03-24T14:44:02.038Z,25.90
2023-03-24T14:46:51.916Z,25.90
2023-03-24T14:49:44.760Z,26.20
2023-03-24T14:52:33.817Z,24.60
2023-03-24T14:55:22.403Z,24.10
2023-03-24T14:58:18.022Z,24.20
2023-03-24T15:04:26.215Z,25.30
2023-03-24T15:07:15.296Z,25.40
2023-03-24T15:10:03.344Z,25.10
2023-03-24T15:12:51.832Z,23.40
2023-03-24T15:15:47.619Z,21.50
2023-03-24T15:18:36.716Z,21.80
2023-03-24T15:21:28.400Z,21.90
2023-03-24T15:24:27.555Z,20.50
2023-03-24T15:27:20.446Z,19.30
2023-03-24T15:30:14.788Z,18.60
2023-03-24T15:33:04.282Z,18.10
2023-03-24T15:35:55.962Z,17.70
2023-03-24T15:38:46.671Z,17.40
2023-03-24T15:41:34.776Z,17.20
2023-03-24T15:44:26.494Z,17.70
2023-03-24T15:47:16.176Z,18.30
2023-03-24T15:50:06.301Z,20.00
2023-03-24T15:52:59.686Z,21.00
2023-03-24T15:55:47.900Z,20.50
2023-03-24T15:58:50.116Z,19.60
2023-03-24T16:01:38.834Z,19.10
2023-03-24T16:04:30.040Z,19.10
2023-03-24T16:07:29.711Z,19.10
2023-03-24T16:10:27.900Z,18.60
2023-03-24T16:13:17.707Z,18.10
2023-03-24T16:16:09.473Z,18.10
2023-03-24T16:18:59.275Z,17.90
2023-03-24T16:21:47.459Z,17.50
2023-03-24T16:24:36.909Z,17.10
2023-03-24T16:27:25.068Z,16.90
2023-03-24T16:30:19.453Z,16.80
2023-03-24T16:33:08.306Z,16.60
2023-03-24T16:35:56.474Z,16.50
2023-03-24T16:38:45.123Z,16.30
2023-03-24T16:41:34.561Z,16.00
2023-03-24T16:44:22.896Z,15.80
2023-03-24T16:47:11.663Z,15.70
2023-03-24T16:49:59.724Z,15.60
2023-03-24T16:52:47.824Z,15.50
2023-03-24T16:55:35.994Z,15.40
2023-03-24T16:58:25.498Z,15.30
2023-03-24T17:01:26.970Z,15.10
2023-03-24T17:04:16.424Z,15.00
2023-03-24T17:07:04.504Z,14.90
2023-03-24T17:09:52.630Z,14.80
2023-03-24T17:12:40.766Z,14.80
2023-03-24T17:15:31.164Z,14.70
2023-03-24T17:18:20.431Z,14.50
2023-03-24T17:21:12.853Z,14.40
2023-03-24T17:24:01.132Z,14.30
2023-03-24T17:26:49.367Z,14.20
2023-03-24T17:29:37.692Z,14.10
2023-03-24T17:32:31.879Z,14.10
2023-03-24T17:35:21.030Z,14.00
2023-03-24T17:38:11.291Z,13.90
2023-03-24T17:40:59.927Z,13.90
2023-03-24T17:43:48.037Z,13.90
2023-03-24T17:46:36.142Z,13.80
2023-03-24T17:49:25.683Z,13.70
2023-03-24T17:52:13.804Z,13.70
2023-03-24T17:55:04.343Z,13.70
2023-03-24T17:57:52.407Z,13.70
2023-03-24T18:00:41.463Z,13.60
2023-03-24T18:03:30.047Z,13.60
2023-03-24T18:06:19.488Z,13.60
2023-03-24T18:09:08.753Z,13.60
2023-03-24T18:11:57.872Z,13.50
2023-03-24T18:14:46.185Z,13.30
2023-03-24T18:17:36.265Z,13.10
2023-03-24T18:20:24.573Z,13.00
2023-03-24T18:23:16.059Z,12.80
2023-03-24T18:26:06.214Z,12.80
2023-03-24T18:28:54.392Z,12.70
2023-03-24T18:31:42.500Z,12.70
2023-03-24T18:34:30.830Z,12.60
2023-03-24T18:37:18.961Z,12.60
2023-03-24T18:40:10.091Z,12.60
2023-03-24T18:42:58.215Z,12.60
2023-03-24T18:45:46.295Z,12.50
2023-03-24T18:48:34.495Z,12.50
2023-03-24T18:51:23.135Z,12.40
2023-03-24T18:54:11.746Z,12.40
2023-03-24T18:57:02.198Z,12.40
2023-03-24T18:59:50.657Z,12.20
2023-03-24T19:02:38.831Z,12.10
2023-03-24T19:05:27.037Z,11.90
2023-03-24T19:08:16.142Z,11.90
2023-03-24T19:11:04.510Z,11.90
2023-03-24T19:13:55.908Z,11.90
2023-03-24T19:16:43.998Z,11.90
2023-03-24T19:19:32.399Z,11.80
2023-03-24T19:22:22.228Z,11.80
2023-03-24T19:25:10.543Z,11.70
2023-03-24T19:27:58.596Z,11.60
2023-03-24T19:30:48.065Z,11.60
2023-03-24T19:33:36.890Z,11.50
2023-03-24T19:36:26.242Z,11.40
2023-03-24T19:39:14.769Z,11.30
2023-03-24T19:42:06.988Z,11.20
2023-03-24T19:44:55.073Z,11.10
2023-03-24T19:47:45.939Z,11.20
2023-03-24T19:50:34.155Z,11.20
2023-03-24T19:53:23.053Z,11.20
2023-03-24T19:56:11.317Z,11.10
2023-03-24T19:58:59.398Z,11.10
2023-03-24T20:01:47.664Z,11.10
2023-03-24T20:04:37.174Z,11.00
2023-03-24T20:07:26.544Z,10.90
2023-03-24T20:10:14.685Z,10.90
2023-03-24T20:13:02.791Z,10.80
2023-03-24T20:15:51.093Z,10.80
2023-03-24T20:18:39.315Z,10.80
2023-03-24T20:21:30.047Z,10.80
2023-03-24T20:24:18.106Z,10.70
2023-03-24T20:27:06.536Z,10.70
2023-03-24T20:29:54.623Z,10.60
2023-03-24T20:32:43.716Z,10.60
2023-03-24T20:35:32.998Z,10.60
2023-03-24T20:38:24.048Z,10.50
2023-03-24T20:41:12.096Z,10.40
2023-03-24T20:44:00.344Z,10.30
2023-03-24T20:46:48.452Z,10.30
2023-03-24T20:49:37.399Z,10.30
2023-03-24T20:52:25.882Z,10.30
2023-03-24T20:55:15.397Z,10.30
2023-03-24T20:58:04.207Z,10.30
2023-03-24T21:00:53.693Z,10.30
2023-03-24T21:03:41.897Z,10.30
2023-03-24T21:06:30.019Z,10.20
2023-03-24T21:09:20.157Z,10.20
2023-03-24T21:12:09.835Z,10.20
2023-03-24T21:14:57.926Z,10.10
2023-03-24T21:17:46.749Z,10.00
2023-03-24T21:20:34.921Z,9.90
2023-03-24T21:23:23.052Z,9.80
2023-03-24T21:26:15.235Z,9.70
2023-03-24T21:29:04.663Z,9.70
2023-03-24T21:31:52.749Z,9.60
2023-03-24T21:34:41.028Z,9.50
2023-03-24T21:37:31.242Z,9.50
2023-03-24T21:40:20.796Z,9.40
2023-03-24T21:43:08.895Z,9.40
2023-03-24T21:45:58.579Z,9.30
2023-03-24T21:48:50.248Z,9.30
2023-03-24T21:51:38.477Z,9.30
2023-03-24T21:54:26.795Z,9.20
2023-03-24T21:57:15.059Z,9.20
2023-03-24T22:00:13.065Z,9.10
2023-03-24T22:03:03.784Z,9.10
2023-03-24T22:05:54.531Z,9.10
2023-03-24T22:08:44.249Z,9.10
2023-03-24T22:11:32.618Z,9.10
2023-03-24T22:14:21.180Z,9.10
2023-03-24T22:17:09.441Z,9.10
2023-03-24T22:19:58.950Z,9.10
2023-03-24T22:22:47.390Z,9.00
2023-03-24T22:25:36.864Z,9.00
2023-03-24T22:28:24.965Z,8.90
2023-03-24T22:31:13.830Z,8.90
2023-03-24T22:34:01.982Z,8.90
2023-03-24T22:36:51.389Z,9.00
2023-03-24T22:39:39.481Z,9.00
2023-03-24T22:42:27.545Z,9.00
2023-03-24T22:45:15.746Z,9.00
2023-03-24T22:48:03.894Z,9.00
2023-03-24T22:50:52.048Z,9.00
2023-03-24T22:53:42.453Z,9.00
2023-03-24T22:56:30.584Z,8.90
2023-03-24T22:59:18.694Z,9.00
2023-03-24T23:02:10.095Z,9.00
2023-03-24T23:04:58.552Z,9.00
2023-03-24T23:07:47.424Z,8.90
2023-03-24T23:10:37.045Z,8.90
2023-03-24T23:13:26.281Z,8.80
2023-03-24T23:16:14.434Z,8.80
2023-03-24T23:19:02.981Z,8.80
2023-03-24T23:21:51.468Z,8.90
2023-03-24T23:24:39.760Z,8.80
2023-03-24T23:27:29.241Z,8.80
2023-03-24T23:30:18.110Z,8.80
2023-03-24T23:33:06.529Z,8.70
2023-03-24T23:35:57.674Z,8.70
2023-03-24T23:38:47.494Z,8.70
2023-03-24T23:41:35.688Z,8.70
2023-03-24T23:44:25.431Z,8.60
2023-03-24T23:47:13.544Z,8.60
2023-03-24T23:50:01.604Z,8.50
2023-03-24T23:52:49.661Z,8.50
2023-03-24T23:55:37.704Z,8.50
2023-03-24T23:58:27.091Z,8.50
